createdAt,value
2023-05-18T00:00:37.992Z,60.23
2023-05-18T00:03:07.110Z,59.89
2023-05-18T00:05:35.350Z,59.87
2023-05-18T00:08:03.475Z,60.34
2023-05-18T00:10:31.701Z,60.76
2023-05-18T00:12:59.829Z,60.97
2023-05-18T00:15:29.546Z,60.89
2023-05-18T00:17:58.568Z,61.61
2023-05-18T00:20:27.542Z,61.67
2023-05-18T00:22:55.756Z,62.04
2023-05-18T00:25:24.108Z,62.31
2023-05-18T00:27:52.252Z,62.38
2023-05-18T00:30:20.666Z,61.83
2023-05-18T00:32:50.184Z,61.75
2023-05-18T00:35:18.290Z,61.83
2023-05-18T00:37:46.509Z,62.01
2023-05-18T00:40:14.850Z,62.33
2023-05-18T00:42:42.896Z,62.41
2023-05-18T00:45:11.952Z,61.98
2023-05-18T00:47:40.108Z,61.81
2023-05-18T00:50:12.536Z,61.81
2023-05-18T00:52:41.588Z,61.65
2023-05-18T00:55:12.697Z,61.83
2023-05-18T00:57:42.094Z,61.79
2023-05-18T01:00:13.977Z,62.28
2023-05-18T01:02:45.506Z,62.21
2023-05-18T01:05:15.185Z,62.04
2023-05-18T01:07:43.502Z,62.43
2023-05-18T01:10:16.293Z,62.06
2023-05-18T01:12:51.766Z,61.55
2023-05-18T01:15:24.380Z,61.69
2023-05-18T01:18:10.233Z,61.67
2023-05-18T01:20:47.760Z,61.90
2023-05-18T01:23:54.870Z,61.64
2023-05-18T01:26:31.527Z,61.82
2023-05-18T01:29:03.604Z,61.75
2023-05-18T01:31:32.333Z,62.30
2023-05-18T01:34:00.586Z,62.25
2023-05-18T01:36:28.905Z,62.37
2023-05-18T01:39:01.441Z,62.74
2023-05-18T01:41:33.268Z,63.26
2023-05-18T01:44:07.057Z,62.46
2023-05-18T01:46:44.330Z,62.42
2023-05-18T01:49:21.656Z,62.52
2023-05-18T01:51:51.754Z,62.52
2023-05-18T01:54:23.018Z,62.68
2023-05-18T01:56:54.818Z,62.36
2023-05-18T01:59:25.328Z,62.50
2023-05-18T02:01:59.268Z,62.18
2023-05-18T02:04:28.521Z,61.64
2023-05-18T02:06:57.097Z,62.00
2023-05-18T02:09:25.441Z,61.62
2023-05-18T02:11:54.882Z,61.78
2023-05-18T02:14:23.075Z,61.40
2023-05-18T02:16:54.245Z,61.26
2023-05-18T02:19:25.362Z,61.56
2023-05-18T02:21:54.961Z,62.11
2023-05-18T02:24:23.314Z,62.04
2023-05-18T02:26:51.545Z,62.27
2023-05-18T02:29:22.752Z,62.29
2023-05-18T02:31:51.149Z,62.41
2023-05-18T02:34:19.699Z,62.41
2023-05-18T02:36:48.737Z,62.46
2023-05-18T02:39:17.246Z,62.27
2023-05-18T02:41:45.377Z,62.60
2023-05-18T02:44:13.685Z,62.36
2023-05-18T02:46:43.129Z,62.17
2023-05-18T02:49:11.853Z,62.41
2023-05-18T02:51:40.184Z,62.51
2023-05-18T02:54:08.344Z,62.46
2023-05-18T02:56:43.450Z,62.46
2023-05-18T02:59:33.043Z,62.54
2023-05-18T03:02:02.645Z,62.55
2023-05-18T03:04:31.725Z,62.57
2023-05-18T03:07:02.703Z,62.54
2023-05-18T03:09:30.999Z,62.51
2023-05-18T03:11:59.275Z,62.83
2023-05-18T03:14:29.995Z,63.01
2023-05-18T03:17:00.510Z,62.84
2023-05-18T03:19:30.028Z,62.68
2023-05-18T03:21:58.840Z,62.76
2023-05-18T03:24:30.119Z,62.79
2023-05-18T03:27:00.944Z,62.82
2023-05-18T03:29:31.301Z,62.49
2023-05-18T03:32:00.802Z,62.45
2023-05-18T03:34:30.330Z,62.36
2023-05-18T03:36:58.582Z,62.69
2023-05-18T03:39:26.922Z,62.80
2023-05-18T03:41:55.169Z,62.63
2023-05-18T03:44:24.023Z,62.54
2023-05-18T03:46:52.392Z,62.80
2023-05-18T03:49:20.538Z,62.61
2023-05-18T03:51:50.061Z,62.33
2023-05-18T03:54:18.180Z,62.35
2023-05-18T03:56:47.017Z,62.83
2023-05-18T03:59:15.252Z,62.79
2023-05-18T04:01:44.506Z,62.46
2023-05-18T04:04:17.906Z,62.96
2023-05-18T04:06:46.933Z,62.51
2023-05-18T04:09:17.305Z,62.82
2023-05-18T04:11:46.492Z,62.47
2023-05-18T04:14:18.082Z,62.16
2023-05-18T04:16:46.707Z,62.25
2023-05-18T04:19:15.912Z,62.17
2023-05-18T04:21:44.103Z,62.23
2023-05-18T04:24:14.455Z,62.07
2023-05-18T04:26:43.949Z,62.18
2023-05-18T04:29:13.610Z,62.29
2023-05-18T04:31:44.722Z,62.17
2023-05-18T04:34:14.285Z,62.34
2023-05-18T04:36:43.857Z,62.37
2023-05-18T04:39:13.171Z,62.68
2023-05-18T04:41:42.176Z,62.39
2023-05-18T04:44:14.135Z,62.97
2023-05-18T04:46:42.665Z,62.86
2023-05-18T04:49:11.669Z,62.88
2023-05-18T04:51:42.016Z,62.99
2023-05-18T04:54:10.369Z,62.93
2023-05-18T04:56:38.638Z,62.80
2023-05-18T04:59:09.339Z,63.32
2023-05-18T05:01:38.806Z,63.42
2023-05-18T05:04:06.946Z,63.38
2023-05-18T05:06:35.127Z,63.92
2023-05-18T05:09:04.606Z,64.15
2023-05-18T05:11:32.774Z,63.98
2023-05-18T05:14:02.307Z,63.86
2023-05-18T05:16:30.643Z,64.01
2023-05-18T05:19:00.249Z,63.48
2023-05-18T05:21:28.925Z,63.84
2023-05-18T05:23:57.357Z,64.00
2023-05-18T05:26:27.427Z,64.20
2023-05-18T05:28:55.525Z,63.92
2023-05-18T05:31:23.686Z,63.41
2023-05-18T05:33:52.761Z,63.57
2023-05-18T05:36:22.664Z,62.66
2023-05-18T05:38:50.931Z,62.57
2023-05-18T05:41:19.063Z,62.52
2023-05-18T05:43:47.187Z,62.63
2023-05-18T05:46:15.765Z,62.11
2023-05-18T05:48:44.372Z,61.54
2023-05-18T05:51:12.550Z,61.93
2023-05-18T05:53:43.520Z,61.58
2023-05-18T05:56:11.662Z,61.33
2023-05-18T05:58:43.045Z,60.48
2023-05-18T06:01:11.662Z,60.61
2023-05-18T06:03:40.356Z,60.23
2023-05-18T06:06:09.020Z,60.11
2023-05-18T06:08:37.345Z,60.45
2023-05-18T06:11:07.781Z,59.29
2023-05-18T06:13:37.552Z,60.15
2023-05-18T06:16:06.734Z,60.36
2023-05-18T06:18:34.965Z,59.98
2023-05-18T06:21:05.860Z,60.31
2023-05-18T06:23:34.478Z,60.19
2023-05-18T06:26:03.044Z,60.27
2023-05-18T06:28:57.683Z,59.28
2023-05-18T06:31:46.051Z,60.16
2023-05-18T06:34:33.055Z,59.92
2023-05-18T06:37:02.229Z,60.20
2023-05-18T06:39:30.433Z,60.16
2023-05-18T06:41:58.802Z,60.40
2023-05-18T06:44:35.198Z,60.33
2023-05-18T06:47:09.180Z,60.16
2023-05-18T06:49:37.680Z,60.52
2023-05-18T06:52:06.766Z,60.74
2023-05-18T06:54:35.281Z,60.25
2023-05-18T06:57:03.707Z,60.72
2023-05-18T06:59:34.630Z,59.27
2023-05-18T07:02:03.962Z,59.77
2023-05-18T07:04:32.932Z,60.08
2023-05-18T07:07:01.533Z,60.09
2023-05-18T07:09:29.780Z,60.06
2023-05-18T07:11:57.866Z,58.98
2023-05-18T07:14:26.052Z,59.17
2023-05-18T07:16:55.676Z,59.97
2023-05-18T07:19:23.965Z,60.25
2023-05-18T07:21:52.738Z,59.38
2023-05-18T07:24:21.024Z,59.01
2023-05-18T07:26:49.413Z,59.04
2023-05-18T07:29:17.834Z,58.80
2023-05-18T07:31:46.611Z,58.97
2023-05-18T07:34:17.161Z,58.18
2023-05-18T07:36:45.604Z,59.17
2023-05-18T07:39:24.344Z,58.83
2023-05-18T07:41:52.679Z,59.17
2023-05-18T07:44:21.037Z,58.72
2023-05-18T07:46:49.178Z,58.22
2023-05-18T07:49:18.860Z,57.81
2023-05-18T07:51:47.228Z,58.46
2023-05-18T07:54:15.369Z,58.11
2023-05-18T07:56:44.273Z,58.89
2023-05-18T07:59:12.683Z,58.69
2023-05-18T08:01:41.489Z,57.32
2023-05-18T08:04:15.060Z,57.88
2023-05-18T08:06:44.796Z,58.20
2023-05-18T08:09:17.052Z,57.01
2023-05-18T08:14:42.472Z,56.38
2023-05-18T08:17:11.137Z,56.28
2023-05-18T08:19:41.834Z,56.12
2023-05-18T08:22:11.787Z,56.09
2023-05-18T08:24:39.948Z,55.93
2023-05-18T08:27:09.885Z,55.37
2023-05-18T08:29:38.097Z,56.24
2023-05-18T08:32:08.085Z,55.12
2023-05-18T08:34:36.770Z,55.02
2023-05-18T08:37:05.330Z,55.40
2023-05-18T08:39:35.068Z,53.82
2023-05-18T08:42:08.712Z,53.65
2023-05-18T08:44:46.531Z,53.77
2023-05-18T08:47:17.594Z,54.54
2023-05-18T08:49:50.478Z,53.23
2023-05-18T08:52:23.162Z,52.95
2023-05-18T08:54:54.056Z,53.26
2023-05-18T08:57:24.489Z,53.46
2023-05-18T08:59:55.420Z,53.60
2023-05-18T09:02:25.176Z,52.69
2023-05-18T09:04:54.642Z,53.02
2023-05-18T09:07:24.433Z,53.20
2023-05-18T09:09:55.686Z,53.01
2023-05-18T09:12:24.690Z,51.48
2023-05-18T09:14:53.985Z,52.61
2023-05-18T09:17:24.691Z,51.69
2023-05-18T09:19:53.573Z,50.23
2023-05-18T09:22:21.889Z,50.09
2023-05-18T09:24:51.347Z,50.24
2023-05-18T09:27:21.636Z,50.46
2023-05-18T09:29:58.092Z,49.73
2023-05-18T09:32:27.590Z,50.04
2023-05-18T09:34:56.093Z,49.57
2023-05-18T09:37:24.487Z,49.92
2023-05-18T09:40:01.359Z,49.21
2023-05-18T09:42:37.808Z,47.82
2023-05-18T09:45:16.905Z,47.79
2023-05-18T09:47:45.132Z,48.74
2023-05-18T09:50:21.005Z,48.01
2023-05-18T09:52:50.866Z,48.00
2023-05-18T09:55:48.238Z,47.95
2023-05-18T09:58:42.206Z,47.32
2023-05-18T10:01:10.374Z,48.35
2023-05-18T10:03:39.528Z,46.85
2023-05-18T10:06:13.248Z,46.75
2023-05-18T10:08:45.527Z,46.56
2023-05-18T10:11:38.535Z,47.57
2023-05-18T10:14:14.495Z,46.51
2023-05-18T10:16:43.282Z,45.81
2023-05-18T10:19:14.689Z,47.05
2023-05-18T10:21:43.372Z,46.63
2023-05-18T10:24:14.502Z,46.24
2023-05-18T10:26:44.945Z,44.23
2023-05-18T10:29:14.863Z,43.99
2023-05-18T10:31:43.609Z,43.12
2023-05-18T10:34:12.372Z,43.02
2023-05-18T10:36:41.143Z,42.66
2023-05-18T10:39:11.263Z,44.29
2023-05-18T10:41:40.957Z,44.32
2023-05-18T10:44:09.182Z,44.79
2023-05-18T10:46:39.313Z,43.37
2023-05-18T10:49:14.717Z,43.56
2023-05-18T10:51:44.660Z,44.13
2023-05-18T10:54:14.617Z,42.82
2023-05-18T10:56:45.192Z,41.79
2023-05-18T10:59:18.433Z,42.27
2023-05-18T11:01:50.687Z,42.82
2023-05-18T11:04:26.941Z,42.30
2023-05-18T11:06:58.936Z,42.07
2023-05-18T11:09:29.760Z,42.55
2023-05-18T11:12:02.467Z,43.00
2023-05-18T11:14:32.840Z,43.61
2023-05-18T11:17:23.368Z,44.00
2023-05-18T11:20:17.173Z,43.54
2023-05-18T11:22:51.397Z,41.63
2023-05-18T11:25:40.918Z,42.67
2023-05-18T11:28:14.714Z,42.95
2023-05-18T11:30:49.944Z,43.52
2023-05-18T11:33:26.080Z,42.24
2023-05-18T11:36:04.396Z,42.69
2023-05-18T11:38:54.802Z,42.20
2023-05-18T11:41:32.403Z,43.47
2023-05-18T11:44:20.850Z,41.59
2023-05-18T11:47:03.544Z,40.20
2023-05-18T11:49:37.559Z,40.53
2023-05-18T11:52:08.900Z,41.07
2023-05-18T11:54:46.885Z,41.88
2023-05-18T11:57:18.681Z,42.37
2023-05-18T11:59:48.892Z,40.51
2023-05-18T12:02:23.132Z,39.82
2023-05-18T12:04:56.405Z,40.95
2023-05-18T12:07:26.149Z,40.96
2023-05-18T12:09:58.349Z,40.08
2023-05-18T12:12:27.291Z,40.91
2023-05-18T12:14:59.021Z,39.94
2023-05-18T12:17:40.300Z,39.41
2023-05-18T12:20:13.818Z,38.69
2023-05-18T12:22:43.065Z,39.90
2023-05-18T12:25:12.722Z,39.57
2023-05-18T12:27:41.945Z,40.09
2023-05-18T12:30:13.822Z,39.87
2023-05-18T12:32:47.089Z,39.67
2023-05-18T12:35:16.741Z,40.60
2023-05-18T12:37:46.289Z,40.09
2023-05-18T12:40:16.917Z,40.20
2023-05-18T12:42:53.795Z,39.83
2023-05-18T12:45:26.945Z,39.40
2023-05-18T12:47:56.310Z,39.01
2023-05-18T12:50:27.318Z,40.05
2023-05-18T12:52:57.446Z,40.54
2023-05-18T12:55:26.652Z,40.10
2023-05-18T12:58:07.894Z,40.18
2023-05-18T13:00:37.823Z,39.87
2023-05-18T13:03:14.492Z,40.03
2023-05-18T13:05:46.453Z,40.64
2023-05-18T13:08:18.030Z,40.11
2023-05-18T13:10:49.312Z,40.19
2023-05-18T13:13:23.764Z,40.47
2023-05-18T13:15:52.556Z,39.91
2023-05-18T13:18:20.794Z,40.04
2023-05-18T13:20:53.590Z,39.48
2023-05-18T13:23:24.000Z,39.24
2023-05-18T13:25:52.365Z,39.51
2023-05-18T13:28:22.549Z,38.77
2023-05-18T13:30:51.511Z,40.41
2023-05-18T13:33:19.718Z,39.11
2023-05-18T13:35:50.985Z,40.08
2023-05-18T13:38:19.162Z,39.45
2023-05-18T13:40:47.416Z,39.93
2023-05-18T13:43:15.639Z,39.46
2023-05-18T13:45:44.424Z,40.69
2023-05-18T13:48:12.819Z,40.28
2023-05-18T13:50:41.138Z,39.94
2023-05-18T13:53:10.750Z,39.83
2023-05-18T13:55:39.152Z,40.58
2023-05-18T13:58:07.573Z,40.05
2023-05-18T14:00:36.493Z,39.30
2023-05-18T14:03:05.210Z,39.72
2023-05-18T14:05:33.685Z,39.22
2023-05-18T14:08:01.900Z,39.54
2023-05-18T14:10:31.961Z,40.45
2023-05-18T14:13:00.251Z,39.87
2023-05-18T14:15:28.344Z,39.90
2023-05-18T14:17:56.640Z,40.19
2023-05-18T14:20:24.873Z,39.58
2023-05-18T14:22:53.152Z,40.21
2023-05-18T14:25:21.234Z,40.76
2023-05-18T14:27:50.959Z,40.40
2023-05-18T14:30:19.107Z,39.65
2023-05-18T14:32:47.366Z,39.99
2023-05-18T14:35:15.706Z,39.73
2023-05-18T14:37:43.804Z,39.75
2023-05-18T14:40:12.785Z,39.90
2023-05-18T14:42:40.972Z,40.52
2023-05-18T14:45:11.816Z,40.14
2023-05-18T14:47:39.960Z,39.92
2023-05-18T14:50:09.487Z,40.39
2023-05-18T14:52:37.649Z,39.58
2023-05-18T14:55:06.657Z,39.07
2023-05-18T14:57:37.857Z,39.44
2023-05-18T15:00:07.346Z,39.60
2023-05-18T15:02:37.068Z,40.04
2023-05-18T15:05:06.325Z,39.57
2023-05-18T15:07:34.667Z,38.94
2023-05-18T15:10:02.845Z,39.45
2023-05-18T15:12:31.187Z,39.44
2023-05-18T15:14:59.315Z,39.05
2023-05-18T15:17:27.575Z,39.45
2023-05-18T15:19:57.236Z,39.80
2023-05-18T15:22:25.439Z,39.71
2023-05-18T15:24:53.804Z,39.47
2023-05-18T15:27:22.071Z,39.91
2023-05-18T15:29:50.254Z,40.42
2023-05-18T15:32:20.885Z,39.99
2023-05-18T15:34:49.014Z,39.06
2023-05-18T15:37:18.526Z,39.95
2023-05-18T15:39:46.653Z,39.54
2023-05-18T15:42:15.020Z,40.26
2023-05-18T15:44:43.218Z,39.89
2023-05-18T15:47:11.505Z,38.72
2023-05-18T15:49:39.667Z,39.20
2023-05-18T15:52:08.960Z,39.74
2023-05-18T15:54:38.414Z,39.73
2023-05-18T15:57:07.437Z,38.93
2023-05-18T15:59:35.638Z,39.24
2023-05-18T16:02:03.745Z,39.48
2023-05-18T16:04:31.866Z,40.06
2023-05-18T16:06:59.996Z,39.86
2023-05-18T16:09:28.478Z,39.31
2023-05-18T16:11:58.177Z,39.08
2023-05-18T16:14:31.311Z,38.64
2023-05-18T16:16:59.456Z,39.52
2023-05-18T16:19:27.797Z,40.35
2023-05-18T16:21:56.798Z,39.76
2023-05-18T16:24:24.878Z,39.45
2023-05-18T16:27:01.303Z,39.52
2023-05-18T16:29:29.571Z,39.75
2023-05-18T16:31:57.751Z,38.79
2023-05-18T16:34:25.915Z,38.83
2023-05-18T16:36:54.080Z,38.71
2023-05-18T16:39:22.193Z,39.81
2023-05-18T16:41:50.361Z,39.91
2023-05-18T16:44:19.822Z,40.11
2023-05-18T16:46:48.112Z,39.85
2023-05-18T16:49:16.322Z,40.23
2023-05-18T16:51:44.569Z,40.54
2023-05-18T16:54:17.542Z,40.11
2023-05-18T16:56:46.704Z,39.97
2023-05-18T16:59:15.393Z,40.18
2023-05-18T17:01:44.881Z,40.10
2023-05-18T17:04:13.613Z,40.31
2023-05-18T17:06:42.056Z,39.72
2023-05-18T17:09:10.182Z,39.60
2023-05-18T17:11:38.313Z,39.63
2023-05-18T17:14:30.350Z,39.97
2023-05-18T17:16:59.814Z,39.67
2023-05-18T17:19:28.141Z,39.82
2023-05-18T17:21:57.128Z,40.43
2023-05-18T17:24:25.275Z,41.12
2023-05-18T17:26:53.648Z,40.93
2023-05-18T17:29:21.973Z,40.94
2023-05-18T17:31:50.467Z,40.80
2023-05-18T17:34:20.172Z,40.69
2023-05-18T17:36:49.742Z,41.00
2023-05-18T17:39:17.983Z,40.54
2023-05-18T17:41:46.137Z,40.39
2023-05-18T17:44:16.237Z,40.89
2023-05-18T17:46:46.147Z,40.91
2023-05-18T17:49:15.061Z,40.58
2023-05-18T17:51:44.706Z,40.47
2023-05-18T17:54:13.368Z,41.09
2023-05-18T17:56:41.542Z,41.05
2023-05-18T17:59:09.753Z,40.94
2023-05-18T18:01:38.058Z,40.88
2023-05-18T18:04:07.095Z,40.83
2023-05-18T18:06:35.638Z,40.40
2023-05-18T18:09:05.948Z,40.61
2023-05-18T18:11:34.129Z,40.66
2023-05-18T18:14:03.171Z,41.19
2023-05-18T18:16:31.470Z,40.82
2023-05-18T18:18:59.604Z,40.74
2023-05-18T18:21:27.688Z,40.54
2023-05-18T18:23:55.976Z,40.34
2023-05-18T18:26:32.777Z,40.75
2023-05-18T18:29:00.822Z,41.05
2023-05-18T18:31:53.676Z,40.97
2023-05-18T18:34:21.827Z,40.87
2023-05-18T18:36:49.940Z,40.78
2023-05-18T18:39:19.150Z,40.69
2023-05-18T18:41:48.664Z,40.79
2023-05-18T18:44:19.057Z,42.38
2023-05-18T18:46:47.794Z,41.47
2023-05-18T18:49:17.078Z,42.52
2023-05-18T18:52:13.029Z,41.51
2023-05-18T18:54:42.019Z,41.29
2023-05-18T18:57:12.077Z,41.54
2023-05-18T18:59:40.426Z,41.31
2023-05-18T19:02:09.331Z,41.34
2023-05-18T19:04:37.509Z,41.89
2023-05-18T19:07:06.066Z,41.50
2023-05-18T19:09:36.091Z,41.08
2023-05-18T19:12:04.681Z,41.89
2023-05-18T19:14:34.129Z,41.27
2023-05-18T19:17:02.558Z,41.25
2023-05-18T19:19:33.096Z,41.57
2023-05-18T19:22:01.466Z,42.29
2023-05-18T19:24:29.651Z,42.00
2023-05-18T19:26:57.769Z,41.97
2023-05-18T19:29:25.893Z,41.98
2023-05-18T19:31:57.213Z,42.38
2023-05-18T19:34:25.780Z,42.34
2023-05-18T19:36:54.055Z,42.26
2023-05-18T19:39:22.134Z,42.93
2023-05-18T19:41:50.201Z,43.08
2023-05-18T19:44:18.293Z,43.08
2023-05-18T19:46:46.544Z,42.82
2023-05-18T19:49:16.078Z,42.81
2023-05-18T19:51:44.210Z,43.07
2023-05-18T19:54:12.984Z,42.94
2023-05-18T19:56:42.097Z,43.54
2023-05-18T19:59:10.139Z,43.31
2023-05-18T20:01:38.287Z,43.48
2023-05-18T20:04:06.678Z,43.37
2023-05-18T20:06:36.791Z,43.84
2023-05-18T20:09:05.153Z,44.00
2023-05-18T20:11:33.414Z,44.26
2023-05-18T20:14:02.165Z,44.62
2023-05-18T20:16:33.735Z,44.78
2023-05-18T20:19:03.353Z,45.01
2023-05-18T20:21:31.811Z,45.44
2023-05-18T20:24:01.430Z,45.69
2023-05-18T20:26:31.962Z,45.53
2023-05-18T20:29:00.374Z,46.02
2023-05-18T20:31:28.663Z,46.43
2023-05-18T20:33:58.051Z,46.77
2023-05-18T20:36:26.678Z,46.47
2023-05-18T20:38:55.080Z,46.24
2023-05-18T20:41:25.862Z,46.16
2023-05-18T20:43:54.225Z,46.46
2023-05-18T20:46:24.974Z,46.23
2023-05-18T20:48:55.262Z,46.55
2023-05-18T20:51:24.692Z,46.54
2023-05-18T20:53:53.176Z,46.89
2023-05-18T20:56:21.913Z,47.30
2023-05-18T20:58:51.376Z,46.95
2023-05-18T21:01:21.028Z,46.95
2023-05-18T21:03:49.497Z,47.77
2023-05-18T21:06:17.867Z,48.15
2023-05-18T21:08:46.233Z,48.43
2023-05-18T21:11:14.351Z,48.73
2023-05-18T21:13:42.404Z,48.55
2023-05-18T21:16:11.943Z,48.94
2023-05-18T21:18:40.138Z,48.97
2023-05-18T21:21:08.348Z,48.86
2023-05-18T21:23:36.530Z,48.66
2023-05-18T21:26:04.871Z,48.98
2023-05-18T21:28:33.111Z,48.69
2023-05-18T21:31:01.262Z,47.94
2023-05-18T21:33:30.741Z,47.88
2023-05-18T21:35:59.588Z,47.30
2023-05-18T21:38:27.634Z,47.12
2023-05-18T21:40:56.938Z,47.15
2023-05-18T21:43:25.460Z,46.87
2023-05-18T21:45:53.605Z,47.08
2023-05-18T21:48:21.905Z,47.23
2023-05-18T21:50:54.067Z,46.89
2023-05-18T21:53:27.566Z,47.86
2023-05-18T21:55:55.897Z,49.09
2023-05-18T21:58:24.570Z,49.00
2023-05-18T22:01:17.124Z,48.80
2023-05-18T22:03:45.420Z,48.69
2023-05-18T22:07:04.632Z,48.08
2023-05-18T22:09:32.719Z,48.03
2023-05-18T22:12:01.139Z,48.36
2023-05-18T22:14:30.940Z,48.47
2023-05-18T22:16:59.178Z,49.60
2023-05-18T22:19:27.390Z,49.73
2023-05-18T22:21:55.657Z,50.85
2023-05-18T22:24:25.098Z,50.51
2023-05-18T22:26:53.250Z,49.89
2023-05-18T22:29:21.424Z,51.06
2023-05-18T22:31:49.568Z,51.27
2023-05-18T22:34:17.636Z,52.00
2023-05-18T22:36:45.742Z,52.34
2023-05-18T22:39:20.902Z,52.10
2023-05-18T22:41:50.362Z,51.94
2023-05-18T22:44:44.021Z,51.13
2023-05-18T22:47:13.403Z,51.55
2023-05-18T22:49:41.503Z,51.04
2023-05-18T22:52:16.431Z,50.25
2023-05-18T22:54:44.641Z,50.52
2023-05-18T22:57:19.140Z,50.70
2023-05-18T22:59:47.633Z,50.89
2023-05-18T23:02:18.149Z,50.28
2023-05-18T23:04:46.465Z,50.31
2023-05-18T23:07:14.672Z,51.16
2023-05-18T23:09:43.052Z,51.78
2023-05-18T23:12:12.716Z,52.44
2023-05-18T23:14:41.236Z,52.99
2023-05-18T23:17:09.529Z,53.00
2023-05-18T23:19:38.527Z,52.74
2023-05-18T23:22:07.066Z,53.22
2023-05-18T23:24:35.125Z,52.85
2023-05-18T23:27:03.207Z,52.67
2023-05-18T23:29:32.603Z,52.89
2023-05-18T23:32:00.729Z,52.12
2023-05-18T23:34:29.821Z,51.64
2023-05-18T23:37:02.780Z,51.29
2023-05-18T23:39:31.457Z,51.78
2023-05-18T23:42:01.667Z,51.77
2023-05-18T23:44:32.168Z,51.39
2023-05-18T23:47:01.251Z,51.45
2023-05-18T23:49:30.227Z,51.40
2023-05-18T23:52:03.204Z,51.54
2023-05-18T23:54:31.846Z,51.69
2023-05-18T23:57:00.722Z,51.44
2023-05-18T23:59:29.565Z,51.21
